Time;durP1;ratioP1;P1;durP2;ratioP2;P2;SDS_P1;SDS_P2;PMS_P1;PMS_P2;Temp;Humidity;BMP_temperature;BMP_pressure;BME280_temperature;BME280_humidity;BME280_pressure;Samples;Min_cycle;Max_cycle;Signal;HPM_P1;HPM_P2
2021/11/24 00:02:39;;;;;;;30.15;16.98;;;;;;;8.01;100.00;98227.00;5037711;28;20029;-86
2021/11/24 00:05:05;;;;;;;29.35;15.43;;;;;;;8.22;100.00;98257.22;5038834;28;20039;-85
2021/11/24 00:07:31;;;;;;;29.40;14.88;;;;;;;8.06;100.00;98235.66;5036256;28;20122;-86
2021/11/24 00:09:56;;;;;;;26.13;14.98;;;;;;;8.09;100.00;98239.06;5069640;28;20096;-86
2021/11/24 00:12:22;;;;;;;25.92;13.45;;;;;;;8.19;100.00;98259.06;5036082;28;20025;-87
2021/11/24 00:14:51;;;;;;;25.95;14.25;;;;;;;8.04;100.00;98243.72;5028033;28;20028;-86
2021/11/24 00:17:17;;;;;;;27.48;14.45;;;;;;;8.28;100.00;98276.50;5031391;28;20032;-86
2021/11/24 00:19:43;;;;;;;28.65;15.25;;;;;;;8.17;100.00;98250.28;5027323;28;20397;-86
2021/11/24 00:22:09;;;;;;;26.27;14.05;;;;;;;8.02;100.00;98240.25;5021777;28;20029;-87
2021/11/24 00:24:35;;;;;;;27.70;14.52;;;;;;;8.09;100.00;98243.53;5022958;28;20059;-86
2021/11/24 00:27:03;;;;;;;30.92;15.40;;;;;;;8.16;100.00;98259.22;5023704;28;20025;-86
2021/11/24 00:30:05;;;;;;;26.13;14.52;;;;;;;8.15;100.00;98249.47;5022534;28;20029;-85
2021/11/24 00:36:13;;;;;;;21.95;12.65;;;;;;;8.12;100.00;98238.09;5053895;28;20085;-87
2021/11/24 00:38:53;;;;;;;26.38;14.05;;;;;;;7.80;100.00;98196.78;5067341;28;20104;-87
2021/11/24 00:41:18;;;;;;;23.92;13.07;;;;;;;8.18;100.00;98249.34;5019247;28;20075;-87
2021/11/24 00:43:44;;;;;;;26.38;14.10;;;;;;;8.18;100.00;98248.50;5023905;28;20055;-86
2021/11/24 00:46:10;;;;;;;28.73;15.32;;;;;;;8.23;100.00;98262.50;5035241;28;20044;-87
2021/11/24 00:48:36;;;;;;;29.20;16.73;;;;;;;8.35;100.00;98270.00;5032248;28;20284;-86
2021/11/24 00:55:31;;;;;;;;;;;;;;;;;;;;;
2021/11/24 01:05:46;;;;;;;;;;;;;;;;;;;;;
2021/11/24 01:12:24;;;;;;;35.85;19.95;;;;;;;7.92;100.00;98222.91;4910248;29;20046;-88
2021/11/24 01:14:50;;;;;;;31.60;17.75;;;;;;;8.12;100.00;98270.91;4901222;29;20269;-86
2021/11/24 01:17:15;;;;;;;32.53;16.23;;;;;;;8.15;100.00;98267.28;4907559;28;20293;-86
2021/11/24 01:19:41;;;;;;;28.38;15.65;;;;;;;7.95;100.00;98227.25;4994865;28;20060;-87
2021/11/24 01:22:07;;;;;;;26.80;14.95;;;;;;;8.15;100.00;98256.63;4995239;28;20126;-87
2021/11/24 01:24:33;;;;;;;29.42;15.05;;;;;;;7.94;100.00;98226.38;5002833;28;20055;-87
2021/11/24 01:26:59;;;;;;;33.38;16.13;;;;;;;8.13;100.00;98245.13;5003036;28;20097;-87
2021/11/24 01:29:24;;;;;;;25.73;14.27;;;;;;;8.04;100.00;98235.72;4982211;28;20505;-86
2021/11/24 01:31:50;;;;;;;29.77;15.32;;;;;;;8.16;100.00;98247.66;4994928;28;20041;-88
2021/11/24 01:34:16;;;;;;;30.70;16.20;;;;;;;8.06;100.00;98236.53;4995582;28;20081;-86
2021/11/24 01:36:45;;;;;;;29.25;16.10;;;;;;;8.16;100.00;98256.53;5043393;28;20031;-86
2021/11/24 01:39:10;;;;;;;31.48;16.13;;;;;;;8.08;100.00;98233.81;5058977;28;20546;-88
2021/11/24 01:41:36;;;;;;;34.05;17.17;;;;;;;8.04;100.00;98225.06;5074395;28;20038;-87
2021/11/24 01:44:02;;;;;;;31.08;17.02;;;;;;;8.12;100.00;98252.25;5057920;28;20054;-87
2021/11/24 01:46:29;;;;;;;33.15;17.23;;;;;;;8.15;100.00;98259.28;5057909;28;20027;-86
2021/11/24 01:48:54;;;;;;;36.53;18.20;;;;;;;8.06;100.00;98249.84;5042304;28;20031;-86
2021/11/24 01:51:20;;;;;;;33.10;17.30;;;;;;;7.93;100.00;98215.78;5056703;28;20045;-86
2021/11/24 01:53:47;;;;;;;34.20;17.65;;;;;;;7.94;100.00;98226.38;5069026;28;20481;-86
2021/11/24 01:56:13;;;;;;;35.53;18.98;;;;;;;8.19;100.00;98260.88;5059055;28;20087;-87
2021/11/24 01:58:39;;;;;;;33.75;18.33;;;;;;;7.85;100.00;98232.06;5058648;28;20090;-87
2021/11/24 02:01:05;;;;;;;34.53;18.30;;;;;;;8.04;100.00;98265.03;5058634;28;20028;-87
2021/11/24 02:03:31;;;;;;;36.95;18.63;;;;;;;8.06;100.00;98265.81;5075729;28;20016;-86
2021/11/24 02:05:57;;;;;;;33.08;18.08;;;;;;;7.87;100.00;98235.56;5059447;28;20043;-86
2021/11/24 02:08:23;;;;;;;35.05;17.17;;;;;;;7.88;100.00;98231.94;5053968;28;20032;-87
2021/11/24 02:10:49;;;;;;;32.20;16.80;;;;;;;7.88;100.00;98239.94;5045661;28;20028;-85
2021/11/24 02:13:15;;;;;;;32.65;18.08;;;;;;;8.01;100.00;98248.31;5045309;28;20059;-86
2021/11/24 02:15:40;;;;;;;38.55;18.98;;;;;;;7.90;100.00;98227.44;5048837;28;20480;-87
2021/11/24 02:18:07;;;;;;;33.20;18.58;;;;;;;7.87;100.00;98216.03;5054996;28;20043;-86
2021/11/24 02:20:47;;;;;;;37.17;18.60;;;;;;;7.96;100.00;98239.63;5045512;28;20078;-86
2021/11/24 02:23:15;;;;;;;36.17;19.63;;;;;;;7.94;100.00;98236.16;5057448;28;20028;-86
2021/11/24 02:25:42;;;;;;;35.63;18.40;;;;;;;7.98;100.00;98240.44;5071348;28;20033;-87
2021/11/24 02:28:08;;;;;;;37.05;18.52;;;;;;;7.88;100.00;98226.63;5041154;28;20033;-85
2021/11/24 02:30:34;;;;;;;40.28;19.58;;;;;;;7.91;100.00;98225.63;5047082;28;20539;-87
2021/11/24 02:33:00;;;;;;;39.38;18.50;;;;;;;8.13;100.00;98264.66;5051891;28;20024;-87
2021/11/24 02:35:26;;;;;;;35.60;17.45;;;;;;;7.81;100.00;98222.50;5042564;28;20032;-87
2021/11/24 02:37:52;;;;;;;35.40;17.55;;;;;;;8.05;100.00;98260.56;5050205;28;20076;-87
2021/11/24 02:40:18;;;;;;;37.03;18.98;;;;;;;7.77;100.00;98223.53;5034363;28;20029;-87
2021/11/24 02:42:44;;;;;;;37.38;18.83;;;;;;;7.90;100.00;98232.78;5031511;28;20035;-87
2021/11/24 02:45:11;;;;;;;38.35;19.88;;;;;;;7.88;100.00;98229.28;5040410;28;20028;-86
2021/11/24 02:47:37;;;;;;;39.55;19.45;;;;;;;7.98;100.00;98228.00;5051412;28;20038;-87
2021/11/24 02:50:04;;;;;;;44.13;20.10;;;;;;;7.95;100.00;98227.25;5040850;28;20499;-85
2021/11/24 02:52:30;;;;;;;52.15;24.60;;;;;;;8.08;100.00;98261.31;5053955;28;20043;-88
2021/11/24 02:54:58;;;;;;;48.78;24.55;;;;;;;7.80;100.00;98223.41;5041124;28;20056;-86
2021/11/24 02:57:36;;;;;;;54.97;25.88;;;;;;;7.81;100.00;98230.47;5052607;28;20029;-85
2021/11/24 03:00:05;;;;;;;51.70;23.92;;;;;;;7.88;100.00;98237.28;5047567;28;20029;-86
2021/11/24 03:02:31;;;;;;;46.55;22.25;;;;;;;7.91;100.00;98242.47;5064334;28;20143;-87
2021/11/24 03:04:56;;;;;;;47.17;23.90;;;;;;;8.04;100.00;98262.38;5047517;28;20037;-86
2021/11/24 03:07:22;;;;;;;44.13;21.20;;;;;;;8.03;100.00;98263.28;5034781;28;20038;-86
2021/11/24 03:09:52;;;;;;;37.92;19.92;;;;;;;8.05;100.00;98271.25;5061526;28;20119;-86
2021/11/24 03:12:18;;;;;;;39.00;19.05;;;;;;;8.00;100.00;98268.75;5047513;28;20136;-87
2021/11/24 03:14:44;;;;;;;36.47;18.63;;;;;;;7.87;100.00;98248.88;5046085;28;20083;-87
2021/11/24 03:17:10;;;;;;;35.53;20.00;;;;;;;7.79;100.00;98242.09;5041407;28;20032;-87
2021/11/24 03:19:35;;;;;;;41.25;21.50;;;;;;;7.80;100.00;98250.03;5047536;28;20028;-86
2021/11/24 03:22:01;;;;;;;44.20;20.80;;;;;;;7.85;100.00;98260.50;5040170;28;20039;-86
2021/11/24 03:24:31;;;;;;;41.28;21.10;;;;;;;7.90;100.00;98262.06;5047962;28;20037;-87
2021/11/24 03:26:57;;;;;;;40.90;21.13;;;;;;;7.79;100.00;98253.63;5051984;28;20094;-86
2021/11/24 03:29:23;;;;;;;36.92;19.40;;;;;;;7.73;100.00;98234.34;5045128;28;20028;-85
2021/11/24 03:31:48;;;;;;;38.75;20.00;;;;;;;7.77;100.00;98244.84;5036736;28;20094;-87
2021/11/24 03:34:14;;;;;;;40.05;19.17;;;;;;;7.93;100.00;98272.59;5037157;28;20029;-86
2021/11/24 03:36:40;;;;;;;38.65;20.52;;;;;;;7.85;100.00;98263.16;5054612;28;20040;-86
2021/11/24 03:39:06;;;;;;;37.08;19.10;;;;;;;7.94;100.00;98287.63;5047525;28;20103;-88
2021/11/24 03:41:32;;;;;;;42.92;20.70;;;;;;;7.82;100.00;98273.94;5034866;28;20021;-87
2021/11/24 03:43:58;;;;;;;38.13;19.15;;;;;;;7.86;100.00;98271.09;5051247;28;20020;-87
2021/11/24 03:46:24;;;;;;;39.45;19.92;;;;;;;7.63;100.00;98233.84;5037426;28;20040;-85
2021/11/24 03:48:50;;;;;;;37.67;18.73;;;;;;;7.74;100.00;98260.06;5057337;28;20025;-88
2021/11/24 03:51:16;;;;;;;36.78;19.05;;;;;;;7.65;100.00;98240.00;5053483;28;20049;-86
2021/11/24 03:53:41;;;;;;;36.53;18.95;;;;;;;7.95;100.00;98296.50;5046885;28;20025;-87
2021/11/24 03:56:12;;;;;;;40.92;19.17;;;;;;;7.82;100.00;98253.50;5046838;28;20111;-87
2021/11/24 03:58:38;;;;;;;37.17;19.15;;;;;;;7.90;100.00;98279.84;5055485;28;20048;-87
2021/11/24 04:01:04;;;;;;;35.17;19.15;;;;;;;7.81;100.00;98258.91;5045380;28;20118;-87
2021/11/24 04:03:30;;;;;;;42.40;22.00;;;;;;;7.92;100.00;98284.16;5042015;28;20033;-87
2021/11/24 04:05:56;;;;;;;46.67;23.00;;;;;;;7.83;100.00;98270.34;5041892;28;20412;-87
2021/11/24 04:08:22;;;;;;;45.33;22.65;;;;;;;7.79;100.00;98269.59;5039018;28;20028;-88
2021/11/24 04:10:48;;;;;;;42.08;21.77;;;;;;;7.82;100.00;98276.59;5070769;28;20033;-87
2021/11/24 04:13:13;;;;;;;41.38;21.98;;;;;;;7.98;100.00;98305.25;5053613;28;20035;-87
2021/11/24 04:15:39;;;;;;;49.95;25.27;;;;;;;7.85;100.00;98290.66;5031839;28;20107;-77
2021/11/24 04:18:05;;;;;;;45.00;23.10;;;;;;;7.84;100.00;98288.94;5070526;28;20407;-87
2021/11/24 04:20:31;;;;;;;45.35;23.23;;;;;;;7.99;100.00;98306.13;5059070;28;20036;-85
2021/11/24 04:22:57;;;;;;;44.80;22.80;;;;;;;7.95;100.00;98299.16;5041468;28;20116;-86
2021/11/24 04:25:22;;;;;;;43.15;22.63;;;;;;;7.89;100.00;98283.41;5063420;28;20028;-86
2021/11/24 04:27:49;;;;;;;42.45;22.15;;;;;;;7.99;100.00;98300.78;5037393;28;20510;-84
2021/11/24 04:30:16;;;;;;;48.17;22.27;;;;;;;8.05;100.00;98309.41;5043668;28;20028;-86
2021/11/24 04:32:42;;;;;;;60.20;29.50;;;;;;;7.92;100.00;98289.50;5037966;28;20025;-86
2021/11/24 04:35:08;;;;;;;52.88;27.35;;;;;;;7.88;100.00;98290.53;5071072;28;20028;-87
2021/11/24 04:37:34;;;;;;;56.05;28.60;;;;;;;7.98;100.00;98310.56;5046378;28;20495;-85
2021/11/24 04:40:00;;;;;;;65.43;31.73;;;;;;;7.93;100.00;98298.38;5067708;28;20035;-87
2021/11/24 04:42:26;;;;;;;78.30;39.17;;;;;;;7.94;100.00;98298.28;5059073;28;20035;-85
2021/11/24 04:44:52;;;;;;;83.32;40.35;;;;;;;7.93;100.00;98293.91;5054048;28;20107;-86
2021/11/24 04:47:18;;;;;;;73.57;36.15;;;;;;;7.94;100.00;98295.63;5042732;28;20025;-85
2021/11/24 04:49:47;;;;;;;63.55;31.33;;;;;;;7.90;100.00;98310.00;5068240;28;20021;-85
2021/11/24 04:52:12;;;;;;;61.42;32.65;;;;;;;7.65;100.00;98295.91;5063676;28;20502;-86
2021/11/24 04:54:38;;;;;;;65.30;32.20;;;;;;;7.55;100.00;98300.72;5041685;28;20020;-85
2021/11/24 04:57:05;;;;;;;64.88;33.85;;;;;;;7.56;100.00;98291.81;5050013;28;20146;-85
2021/11/24 04:59:32;;;;;;;59.30;31.15;;;;;;;7.72;100.00;98307.19;5048100;28;20031;-86
2021/11/24 05:01:57;;;;;;;62.95;30.88;;;;;;;7.68;100.00;98302.91;5046112;28;20028;-87
2021/11/24 05:04:28;;;;;;;54.22;29.75;;;;;;;7.83;100.00;98334.25;5060547;28;20031;-84
2021/11/24 05:06:53;;;;;;;52.95;27.25;;;;;;;7.70;100.00;98312.56;5045380;28;20028;-88
2021/11/24 05:09:24;;;;;;;51.38;25.80;;;;;;;7.56;100.00;98301.59;5049078;28;20028;-86
2021/11/24 05:11:50;;;;;;;52.80;26.08;;;;;;;7.53;100.00;98301.69;5052627;28;20115;-87
2021/11/24 05:14:21;;;;;;;50.65;26.13;;;;;;;7.55;100.00;98310.47;5046835;28;20063;-86
2021/11/24 05:16:48;;;;;;;52.92;25.50;;;;;;;7.63;100.00;98322.56;5039652;28;20032;-85
2021/11/24 05:19:19;;;;;;;48.28;25.83;;;;;;;7.58;100.00;98307.69;5054889;28;20028;-85
2021/11/24 05:21:50;;;;;;;45.85;23.58;;;;;;;7.58;100.00;98308.56;5064672;28;20407;-87
2021/11/24 05:24:17;;;;;;;43.65;21.73;;;;;;;7.73;100.00;98341.72;5065600;28;20029;-85
2021/11/24 05:26:43;;;;;;;48.03;23.98;;;;;;;7.63;100.00;98330.56;5042663;28;20123;-86
2021/11/24 05:29:09;;;;;;;46.97;24.73;;;;;;;7.64;100.00;98334.97;5053416;28;20118;-86
2021/11/24 05:31:35;;;;;;;56.38;26.45;;;;;;;7.47;100.00;98301.94;5061396;28;20032;-85
2021/11/24 05:34:03;;;;;;;47.05;25.35;;;;;;;7.84;100.00;98355.53;5055748;28;20044;-86
2021/11/24 05:36:31;;;;;;;40.13;22.35;;;;;;;7.80;100.00;98342.38;5054605;28;20032;-86
2021/11/24 05:38:59;;;;;;;43.42;22.67;;;;;;;7.73;100.00;98323.09;5043984;28;20027;-87
2021/11/24 05:41:24;;;;;;;45.47;21.77;;;;;;;7.85;100.00;98337.72;5042313;28;20412;-88
2021/11/24 05:43:53;;;;;;;42.78;21.85;;;;;;;7.66;100.00;98316.25;5056081;28;20031;-86
2021/11/24 05:46:38;;;;;;;35.00;19.30;;;;;;;7.89;100.00;98337.56;5058986;28;20090;-85
2021/11/24 05:49:04;;;;;;;36.38;18.92;;;;;;;7.85;100.00;98335.94;5045676;28;20020;-86
2021/11/24 05:51:30;;;;;;;42.78;19.35;;;;;;;7.94;100.00;98334.69;5055624;28;20490;-86
2021/11/24 05:53:55;;;;;;;39.40;19.80;;;;;;;7.93;100.00;98344.53;5048977;28;20028;-87
2021/11/24 05:56:21;;;;;;;38.38;20.40;;;;;;;8.11;100.00;98362.44;5054988;28;20036;-86
2021/11/24 05:58:47;;;;;;;38.13;20.65;;;;;;;8.09;100.00;98366.94;5043639;28;20111;-86
2021/11/24 06:01:13;;;;;;;41.92;21.02;;;;;;;8.04;100.00;98365.41;5049519;28;20090;-86
2021/11/24 06:03:38;;;;;;;45.50;22.17;;;;;;;7.96;100.00;98339.06;5049910;28;20102;-87
2021/11/24 06:06:04;;;;;;;28.20;15.15;;;;;;;7.73;100.00;98339.06;5055051;28;20024;-87
2021/11/24 06:08:31;;;;;;;28.65;16.33;;;;;;;8.01;100.00;98365.53;5053279;28;20047;-86
2021/11/24 06:10:59;;;;;;;33.85;18.27;;;;;;;8.04;100.00;98366.28;5048481;28;20316;-86
2021/11/24 06:13:24;;;;;;;34.08;16.05;;;;;;;7.78;100.00;98329.13;5042758;28;20020;-86
2021/11/24 06:15:56;;;;;;;35.78;17.42;;;;;;;8.02;100.00;98372.59;5047477;28;20089;-88
2021/11/24 06:18:21;;;;;;;38.08;21.05;;;;;;;7.86;100.00;98356.31;5053354;28;20016;-86
2021/11/24 06:20:48;;;;;;;44.97;21.23;;;;;;;8.01;100.00;98371.72;5055044;28;20029;-86
2021/11/24 06:23:13;;;;;;;37.50;18.42;;;;;;;7.95;100.00;98371.09;5048416;28;20408;-86
2021/11/24 06:25:42;;;;;;;45.45;20.15;;;;;;;8.01;100.00;98374.38;5039032;28;20024;-85
2021/11/24 06:28:09;;;;;;;41.75;21.15;;;;;;;8.21;100.00;98396.72;5040870;28;20021;-85
2021/11/24 06:30:35;;;;;;;45.92;21.83;;;;;;;8.32;100.00;98405.19;5062148;28;20032;-86
2021/11/24 06:33:01;;;;;;;37.58;20.38;;;;;;;8.27;100.00;98388.50;5050275;28;20043;-86
2021/11/24 06:35:30;;;;;;;43.88;20.02;;;;;;;8.47;100.00;98396.59;5047459;28;20247;-85
2021/11/24 06:37:56;;;;;;;50.50;19.92;;;;;;;8.50;100.00;98396.47;5041059;28;20028;-86
2021/11/24 06:40:22;;;;;;;48.17;20.92;;;;;;;8.47;100.00;98396.59;5040952;28;20020;-86
2021/11/24 06:42:54;;;;;;;38.08;18.08;;;;;;;8.36;100.00;98380.16;5048594;28;20464;-85
2021/11/24 06:45:24;;;;;;;44.80;19.30;;;;;;;8.36;100.00;98374.84;5047649;28;20032;-85
2021/11/24 06:47:51;;;;;;;40.90;18.98;;;;;;;8.44;100.00;98397.59;5053473;28;20126;-86
2021/11/24 06:50:18;;;;;;;39.65;18.13;;;;;;;8.21;100.00;98367.41;5058146;28;20048;-86
2021/11/24 06:52:43;;;;;;;45.75;17.70;;;;;;;8.44;100.00;98407.38;5044810;28;20024;-86
2021/11/24 06:55:10;;;;;;;38.60;18.00;;;;;;;8.43;100.00;98395.84;5051389;28;20024;-87
2021/11/24 06:57:36;;;;;;;38.67;17.50;;;;;;;8.71;100.00;98423.16;5054374;28;20024;-85
2021/11/24 07:00:04;;;;;;;32.55;17.67;;;;;;;8.85;100.00;98435.06;5054252;28;20467;-85
2021/11/24 07:02:30;;;;;;;32.38;16.42;;;;;;;8.72;98.19;98376.00;5047198;28;20060;-86
2021/11/24 07:04:59;;;;;;;42.45;21.40;;;;;;;8.96;95.82;98399.00;5047341;28;20510;-87
2021/11/24 07:07:24;;;;;;;37.47;17.15;;;;;;;9.25;93.05;98405.78;5055995;28;20031;-86
2021/11/24 07:09:50;;;;;;;36.58;19.30;;;;;;;9.20;88.94;98416.63;5055829;28;20415;-87
2021/11/24 07:12:25;;;;;;;30.13;16.52;;;;;;;9.71;87.27;98423.31;5049710;28;20408;-86
2021/11/24 07:14:52;;;;;;;30.10;16.48;;;;;;;10.02;84.72;98396.97;5049024;28;20039;-86
2021/11/24 07:17:18;;;;;;;45.25;23.27;;;;;;;10.31;83.22;98403.63;5066271;28;20134;-86
2021/11/24 07:19:44;;;;;;;28.08;13.38;;;;;;;9.82;78.52;98388.97;5050559;28;20020;-85
2021/11/24 07:22:10;;;;;;;27.33;14.90;;;;;;;9.60;80.03;98390.88;5045337;28;20028;-87
2021/11/24 07:24:39;;;;;;;21.88;12.48;;;;;;;9.57;76.96;98405.22;5041653;28;20032;-86
2021/11/24 07:27:05;;;;;;;25.20;13.20;;;;;;;9.21;78.74;98378.34;5059609;28;20039;-86
2021/11/24 07:29:39;;;;;;;25.38;13.00;;;;;;;9.18;80.21;98351.78;5041682;28;20131;-87
2021/11/24 07:32:04;;;;;;;24.95;13.65;;;;;;;9.24;80.09;98394.22;5046984;28;20120;-86
2021/11/24 07:34:30;;;;;;;28.00;15.05;;;;;;;8.99;81.47;98390.84;5041277;28;20120;-86
2021/11/24 07:36:56;;;;;;;34.47;18.73;;;;;;;9.03;81.43;98360.44;5042378;28;20043;-87
2021/11/24 07:39:22;;;;;;;37.22;20.85;;;;;;;9.63;81.22;98423.66;5050242;28;20115;-87
2021/11/24 07:41:48;;;;;;;36.05;17.48;;;;;;;9.81;81.62;98403.28;5042838;28;20484;-85
2021/11/24 07:44:14;;;;;;;31.33;16.90;;;;;;;9.90;80.98;98405.53;5060386;28;20036;-85
2021/11/24 07:46:49;;;;;;;28.83;15.68;;;;;;;9.86;80.42;98411.09;5039174;28;20036;-87
2021/11/24 07:49:14;;;;;;;20.00;11.45;;;;;;;9.70;81.04;98408.22;5053494;28;20052;-87
2021/11/24 07:51:40;;;;;;;21.83;13.02;;;;;;;9.50;81.31;98397.56;5047663;28;20106;-87
2021/11/24 07:54:06;;;;;;;27.20;14.50;;;;;;;9.10;79.17;98361.94;5052999;28;20029;-86
2021/11/24 07:56:31;;;;;;;28.02;15.65;;;;;;;9.08;81.19;98401.16;5052564;28;20039;-85
2021/11/24 07:59:03;;;;;;;32.30;16.70;;;;;;;9.13;81.86;98393.84;5046078;28;20016;-84
2021/11/24 08:01:28;;;;;;;29.08;15.90;;;;;;;9.33;81.22;98425.00;5046362;28;20028;-86
2021/11/24 08:04:15;;;;;;;28.77;15.85;;;;;;;9.45;81.09;98415.56;5050315;28;20034;-87
2021/11/24 08:06:46;;;;;;;27.90;15.45;;;;;;;9.51;80.43;98415.31;5048148;28;20027;-88
2021/11/24 08:09:15;;;;;;;30.63;16.50;;;;;;;9.53;79.66;98426.81;5038482;28;20466;-87
2021/11/24 08:11:44;;;;;;;33.75;17.27;;;;;;;9.49;80.27;98374.47;5049651;28;20308;-87
2021/11/24 08:14:19;;;;;;;32.10;17.42;;;;;;;9.79;79.24;98415.84;5046613;28;20032;-87
2021/11/24 08:16:48;;;;;;;30.02;16.63;;;;;;;9.30;78.63;98402.91;5071878;28;20028;-86
2021/11/24 08:19:15;;;;;;;32.10;16.10;;;;;;;9.32;78.85;98391.22;5035199;28;20043;-86
2021/11/24 08:21:51;;;;;;;29.80;15.32;;;;;;;9.27;77.95;98396.75;5048770;28;20024;-87
2021/11/24 08:24:42;;;;;;;28.13;14.65;;;;;;;9.63;77.93;98429.00;5047429;28;20024;-86
2021/11/24 08:27:17;;;;;;;29.38;15.75;;;;;;;9.72;76.41;98415.22;5064061;28;20043;-86
2021/11/24 08:29:49;;;;;;;30.55;14.98;;;;;;;9.91;75.47;98417.06;5045710;28;20032;-87
2021/11/24 08:32:15;;;;;;;33.45;14.70;;;;;;;10.14;75.85;98423.16;5049460;28;20060;-86
2021/11/24 08:34:41;;;;;;;22.05;13.23;;;;;;;10.23;74.19;98421.84;5050336;28;20052;-86
2021/11/24 08:37:09;;;;;;;24.30;13.80;;;;;;;10.26;72.84;98400.31;5044393;28;20028;-87
2021/11/24 08:39:36;;;;;;;21.63;13.23;;;;;;;10.52;72.23;98428.53;5039313;28;20188;-86
2021/11/24 08:42:09;;;;;;;24.83;13.20;;;;;;;10.31;73.19;98420.56;5042011;28;20050;-86
2021/11/24 08:44:41;;;;;;;27.17;14.27;;;;;;;10.49;73.01;98423.31;5053014;28;20201;-86
2021/11/24 08:47:06;;;;;;;28.33;15.15;;;;;;;10.63;74.16;98436.88;5047206;28;20032;-86
2021/11/24 08:49:32;;;;;;;26.55;15.18;;;;;;;10.50;71.81;98425.03;5056944;28;20411;-85
2021/11/24 08:51:58;;;;;;;27.98;16.50;;;;;;;10.44;72.30;98430.69;5043451;28;20455;-86
2021/11/24 08:54:26;;;;;;;28.60;14.40;;;;;;;10.37;72.15;98419.38;5046462;28;20036;-86
2021/11/24 08:56:55;;;;;;;26.75;16.00;;;;;;;10.19;72.35;98394.38;5037612;28;20090;-86
2021/11/24 08:59:20;;;;;;;31.90;16.90;;;;;;;10.16;72.63;98405.22;5026660;28;20456;-85
2021/11/24 09:01:49;;;;;;;26.52;14.07;;;;;;;10.13;71.73;98399.13;5040461;28;20032;-85
2021/11/24 09:04:18;;;;;;;26.85;13.88;;;;;;;10.02;71.93;98399.63;5046985;28;20499;-87
2021/11/24 09:06:50;;;;;;;24.92;13.35;;;;;;;9.99;73.26;98405.13;5029951;28;20107;-87
2021/11/24 09:09:16;;;;;;;24.73;13.32;;;;;;;10.03;73.80;98412.03;5061344;28;20036;-85
2021/11/24 09:11:44;;;;;;;27.45;15.32;;;;;;;10.01;73.99;98403.25;5023081;28;20028;-86
2021/11/24 09:14:10;;;;;;;26.85;14.73;;;;;;;9.88;74.61;98399.38;5036006;28;20120;-87
2021/11/24 09:16:36;;;;;;;34.60;17.60;;;;;;;9.82;78.36;98403.19;5049175;28;20052;-88
2021/11/24 09:19:04;;;;;;;38.85;21.15;;;;;;;9.86;81.68;98414.63;5018381;28;20032;-86
2021/11/24 09:22:06;;;;;;;28.80;17.38;;;;;;;9.60;80.37;98410.44;5055080;28;20123;-86
2021/11/24 09:24:35;;;;;;;39.17;20.63;;;;;;;9.34;81.96;98361.78;4979330;28;20038;-88
2021/11/24 09:27:06;;;;;;;33.13;16.75;;;;;;;9.45;83.00;98383.53;4997992;28;20120;-86
2021/11/24 09:29:34;;;;;;;27.02;15.63;;;;;;;9.42;82.91;98399.69;5039873;28;20503;-85
2021/11/24 09:32:06;;;;;;;34.30;16.98;;;;;;;9.32;84.41;98382.34;5045379;28;20056;-87
2021/11/24 09:34:35;;;;;;;37.38;18.60;;;;;;;9.37;85.66;98381.22;5048249;28;20025;-87
2021/11/24 09:37:01;;;;;;;32.42;17.95;;;;;;;9.71;85.66;98415.31;5050092;28;20538;-85
2021/11/24 09:39:27;;;;;;;32.83;17.15;;;;;;;9.78;85.19;98393.59;5045946;28;20020;-86
2021/11/24 09:41:56;;;;;;;28.27;14.18;;;;;;;9.65;83.77;98375.53;5036846;28;20039;-87
2021/11/24 09:44:21;;;;;;;28.80;15.82;;;;;;;9.73;86.36;98395.59;5036180;28;20098;-85
2021/11/24 09:46:50;;;;;;;24.30;14.27;;;;;;;9.57;85.61;98405.22;5039322;28;20029;-87
2021/11/24 09:49:16;;;;;;;23.05;13.85;;;;;;;9.70;86.30;98371.69;5033860;28;20111;-86
2021/11/24 09:51:43;;;;;;;22.75;12.73;;;;;;;9.45;84.74;98383.53;5030632;28;20485;-86
2021/11/24 09:54:13;;;;;;;27.50;14.43;;;;;;;9.47;84.22;98376.34;5017347;28;20095;-85
2021/11/24 09:56:40;;;;;;;26.42;15.40;;;;;;;9.79;83.60;98410.47;5025680;28;20123;-87
2021/11/24 09:59:10;;;;;;;30.00;16.55;;;;;;;10.09;81.07;98387.69;5028867;28;20028;-86
2021/11/24 10:01:38;;;;;;;26.80;15.32;;;;;;;10.55;81.51;98406.97;5030076;28;20029;-86
2021/11/24 10:04:08;;;;;;;29.17;14.75;;;;;;;10.87;76.81;98408.94;5019911;28;20041;-76
2021/11/24 10:06:37;;;;;;;22.60;12.88;;;;;;;10.69;76.34;98394.66;5039234;28;20032;-76
2021/11/24 10:09:04;;;;;;;24.38;13.65;;;;;;;10.29;78.07;98395.72;5018501;28;20579;-75
2021/11/24 10:11:29;;;;;;;28.08;15.40;;;;;;;10.58;78.69;98401.47;5025807;28;20492;-76
2021/11/24 10:13:55;;;;;;;22.48;13.00;;;;;;;10.54;76.38;98389.19;5027633;28;20029;-75
2021/11/24 10:16:26;;;;;;;25.92;13.77;;;;;;;10.43;76.26;98387.00;5044051;28;20029;-75
2021/11/24 10:19:00;;;;;;;23.75;12.25;;;;;;;10.69;75.21;98401.81;5051112;28;20024;-75
2021/11/24 10:21:26;;;;;;;19.42;10.73;;;;;;;10.59;76.05;98397.84;5033223;28;20071;-75
2021/11/24 10:23:53;;;;;;;19.83;11.80;;;;;;;10.85;73.33;98394.78;5022707;28;20025;-75
2021/11/24 10:26:27;;;;;;;20.98;10.85;;;;;;;10.67;74.44;98383.16;5022747;28;20072;-75
2021/11/24 10:29:06;;;;;;;17.60;9.77;;;;;;;10.77;72.92;98381.75;5028239;28;20036;-74
2021/11/24 10:31:52;;;;;;;23.25;11.80;;;;;;;10.67;74.50;98391.19;5051818;28;20108;-75
2021/11/24 10:34:26;;;;;;;20.77;11.02;;;;;;;10.37;75.05;98381.94;5017377;28;20107;-74
2021/11/24 10:37:10;;;;;;;22.30;12.32;;;;;;;10.42;75.43;98373.72;5052159;28;20024;-74
2021/11/24 10:39:40;;;;;;;20.02;10.45;;;;;;;10.39;77.28;98380.09;5018710;28;20084;-75
2021/11/24 10:42:10;;;;;;;20.65;11.60;;;;;;;10.29;77.80;98379.66;5053327;28;20025;-75
2021/11/24 10:44:36;;;;;;;29.80;14.40;;;;;;;10.18;78.39;98376.59;5026797;28;20116;-75
2021/11/24 10:47:06;;;;;;;57.40;28.58;;;;;;;10.16;76.17;98367.81;5022313;28;20065;-75
2021/11/24 10:49:39;;;;;;;45.95;22.88;;;;;;;10.29;77.24;98365.41;5015308;28;20029;-75
2021/11/24 10:52:27;;;;;;;30.92;17.15;;;;;;;10.01;80.06;98365.81;5054560;28;20044;-74
2021/11/24 10:55:11;;;;;;;28.73;14.10;;;;;;;10.02;81.48;98369.38;5034602;28;20029;-74
2021/11/24 10:57:38;;;;;;;23.90;12.82;;;;;;;10.04;78.77;98357.66;5058399;28;20553;-74
2021/11/24 11:00:08;;;;;;;21.35;12.40;;;;;;;10.13;79.43;98362.59;5047788;28;20153;-76
2021/11/24 11:02:36;;;;;;;22.92;12.45;;;;;;;10.04;79.29;98352.31;5061342;28;20033;-75
2021/11/24 11:05:06;;;;;;;22.25;11.43;;;;;;;10.12;79.00;98355.47;5034833;28;20060;-73
2021/11/24 11:07:36;;;;;;;28.13;15.23;;;;;;;10.04;79.76;98343.41;5060855;28;20028;-74
2021/11/24 11:10:05;;;;;;;24.77;13.73;;;;;;;10.05;79.69;98343.34;5057569;28;20033;-75
2021/11/24 11:12:31;;;;;;;24.92;13.13;;;;;;;10.01;80.79;98343.56;5034380;28;20040;-74
2021/11/24 11:15:27;;;;;;;24.60;13.48;;;;;;;9.99;82.29;98342.78;5054081;28;20024;-75
2021/11/24 11:18:04;;;;;;;26.23;13.73;;;;;;;10.04;82.07;98338.94;5027477;28;20088;-75
2021/11/24 11:20:41;;;;;;;24.45;13.55;;;;;;;9.83;81.32;98334.59;5055060;28;20142;-75
2021/11/24 11:23:13;;;;;;;28.25;14.98;;;;;;;9.59;82.77;98341.94;5047211;28;20425;-75
2021/11/24 11:25:43;;;;;;;24.85;13.73;;;;;;;9.49;84.91;98339.75;5060705;28;20437;-75
2021/11/24 11:28:09;;;;;;;33.08;17.45;;;;;;;9.65;85.66;98338.13;5035635;28;20413;-74
2021/11/24 11:30:36;;;;;;;27.80;13.95;;;;;;;9.69;82.59;98332.56;5050166;28;20098;-75
2021/11/24 11:33:02;;;;;;;27.33;14.25;;;;;;;9.77;84.13;98325.06;5070423;28;20031;-75
2021/11/24 11:35:33;;;;;;;28.63;14.75;;;;;;;9.82;82.95;98330.19;5053941;28;20404;-75
2021/11/24 11:37:59;;;;;;;25.50;13.50;;;;;;;9.70;82.66;98328.09;5063599;28;20484;-76
2021/11/24 11:40:25;;;;;;;26.15;14.93;;;;;;;9.62;83.86;98323.09;5045638;28;20031;-76
2021/11/24 11:42:51;;;;;;;26.00;14.43;;;;;;;9.75;83.69;98332.28;5063414;28;20032;-76
2021/11/24 11:45:18;;;;;;;26.73;13.90;;;;;;;9.84;83.92;98325.66;5054032;28;20039;-76
2021/11/24 11:47:46;;;;;;;22.10;11.77;;;;;;;9.63;84.44;98324.81;5051651;28;20102;-76